Time;durP1;ratioP1;P1;durP2;ratioP2;P2;SDS_P1;SDS_P2;PMS_P1;PMS_P2;Temp;Humidity;BMP_temperature;BMP_pressure;BME280_temperature;BME280_humidity;BME280_pressure;Samples;Min_cycle;Max_cycle;Signal;HPM_P1;HPM_P2
2022/05/05 00:01:34;;;;;;;8.40;5.22;;;7.20;99.90;;;;;;5016712;28;20228;-72
2022/05/05 00:04:01;;;;;;;9.15;5.28;;;7.30;99.90;;;;;;5072126;28;20021;-71
2022/05/05 00:06:27;;;;;;;9.77;5.15;;;7.20;99.90;;;;;;5070852;28;20067;-71
2022/05/05 00:08:54;;;;;;;10.95;5.53;;;7.30;99.90;;;;;;5067061;28;20252;-72
2022/05/05 00:14:23;;;;;;;10.27;5.72;;;7.20;99.90;;;;;;5056188;28;20044;-71
2022/05/05 00:16:59;;;;;;;8.03;5.20;;;7.20;99.90;;;;;;5056722;28;20085;-71
2022/05/05 00:19:27;;;;;;;7.85;5.38;;;7.30;99.90;;;;;;5049660;28;20029;-72
2022/05/05 00:21:53;;;;;;;8.00;5.65;;;7.20;99.90;;;;;;5053690;28;20037;-72
2022/05/05 00:24:19;;;;;;;8.88;5.22;;;7.20;99.90;;;;;;5040811;28;20049;-72
2022/05/05 00:26:45;;;;;;;8.63;4.93;;;7.20;99.90;;;;;;5089851;28;20021;-72
2022/05/05 00:29:11;;;;;;;8.52;5.18;;;7.30;99.90;;;;;;5046082;28;20037;-72
2022/05/05 00:31:36;;;;;;;7.38;5.10;;;7.20;99.90;;;;;;5057637;28;20373;-72
2022/05/05 00:34:02;;;;;;;9.80;5.63;;;7.20;99.90;;;;;;5080307;28;20045;-71
2022/05/05 00:36:28;;;;;;;10.98;5.55;;;7.10;99.90;;;;;;5018080;28;20063;-72
2022/05/05 00:38:53;;;;;;;9.70;6.28;;;7.20;99.90;;;;;;5045694;28;20037;-71
2022/05/05 00:41:19;;;;;;;13.23;6.03;;;7.10;99.90;;;;;;5044446;28;20037;-71
2022/05/05 00:43:45;;;;;;;9.30;5.35;;;7.10;99.90;;;;;;5045213;28;20029;-71
2022/05/05 00:46:11;;;;;;;10.88;5.80;;;7.10;99.90;;;;;;5041681;28;20049;-71
2022/05/05 00:48:36;;;;;;;7.70;5.47;;;7.00;99.90;;;;;;5054478;28;20096;-71
2022/05/05 00:51:02;;;;;;;8.52;5.35;;;6.90;99.90;;;;;;5046326;28;20051;-71
2022/05/05 00:53:28;;;;;;;9.45;6.32;;;6.80;99.90;;;;;;5058270;28;20040;-71
2022/05/05 00:56:10;;;;;;;8.05;5.97;;;6.80;99.90;;;;;;5031436;28;20039;-71
2022/05/05 00:58:37;;;;;;;10.30;6.03;;;6.70;99.90;;;;;;5058582;28;20046;-71
2022/05/05 01:01:04;;;;;;;9.32;5.90;;;6.60;99.90;;;;;;5037741;28;20044;-71
2022/05/05 01:03:35;;;;;;;7.03;5.25;;;6.60;99.90;;;;;;5041504;28;20096;-71
2022/05/05 01:06:02;;;;;;;8.10;5.70;;;6.70;99.90;;;;;;5053407;28;20044;-71
2022/05/05 01:08:28;;;;;;;7.15;6.10;;;6.70;99.90;;;;;;5063806;28;20292;-71
2022/05/05 01:10:53;;;;;;;7.50;5.65;;;6.70;99.90;;;;;;5036028;28;20021;-71
2022/05/05 01:13:19;;;;;;;8.63;5.82;;;6.80;99.90;;;;;;5041162;28;20312;-71
2022/05/05 01:15:45;;;;;;;7.30;5.78;;;6.80;99.90;;;;;;5052873;28;20032;-71
2022/05/05 01:18:11;;;;;;;11.25;6.18;;;6.90;99.90;;;;;;5084033;28;20052;-71
2022/05/05 01:20:45;;;;;;;7.75;5.88;;;6.90;99.90;;;;;;5058787;28;20045;-71
2022/05/05 01:23:12;;;;;;;12.30;7.40;;;6.80;99.90;;;;;;5046662;28;20193;-72
2022/05/05 01:28:24;;;;;;;10.82;6.53;;;6.90;99.90;;;;;;5042111;28;20033;-71
2022/05/05 01:30:50;;;;;;;8.57;6.15;;;6.90;99.90;;;;;;5056514;28;20037;-71
2022/05/05 01:33:16;;;;;;;8.85;5.93;;;7.00;99.90;;;;;;5073067;28;20049;-72
2022/05/05 01:35:44;;;;;;;8.23;5.68;;;7.10;99.90;;;;;;5028944;28;20277;-71
2022/05/05 01:38:12;;;;;;;9.13;5.97;;;7.10;99.90;;;;;;5046876;28;20338;-72
2022/05/05 01:40:39;;;;;;;10.35;5.60;;;7.20;99.90;;;;;;5042410;28;20041;-71
2022/05/05 01:43:06;;;;;;;9.15;5.57;;;7.30;99.90;;;;;;5041381;28;20304;-72
2022/05/05 01:45:31;;;;;;;9.70;5.25;;;7.20;99.90;;;;;;5030932;28;20052;-71
2022/05/05 01:47:57;;;;;;;13.40;6.18;;;7.30;99.90;;;;;;5059448;28;20076;-71
2022/05/05 01:50:24;;;;;;;9.13;6.00;;;7.30;99.90;;;;;;5043104;28;20102;-71
2022/05/05 01:52:50;;;;;;;10.35;5.20;;;7.30;99.90;;;;;;5049956;28;20064;-71
2022/05/05 01:55:16;;;;;;;8.57;5.25;;;7.30;99.90;;;;;;5051158;28;20025;-72
2022/05/05 01:57:41;;;;;;;8.70;5.57;;;7.30;99.90;;;;;;5051920;28;20568;-71
2022/05/05 02:00:08;;;;;;;13.52;5.18;;;7.30;99.90;;;;;;5050516;28;20029;-71
2022/05/05 02:02:33;;;;;;;9.82;4.93;;;7.30;99.90;;;;;;5031363;28;20065;-71
2022/05/05 02:04:59;;;;;;;10.75;5.25;;;7.30;99.90;;;;;;5030673;28;20228;-71
2022/05/05 02:07:25;;;;;;;9.48;6.15;;;7.40;99.90;;;;;;5050059;28;20047;-71
2022/05/05 02:09:50;;;;;;;11.18;5.50;;;7.30;99.90;;;;;;5023899;28;20033;-71
2022/05/05 02:12:16;;;;;;;9.57;5.28;;;7.30;99.90;;;;;;5040474;28;20025;-72
2022/05/05 02:14:42;;;;;;;9.60;5.40;;;7.30;99.90;;;;;;5024994;28;20327;-72
2022/05/05 02:17:10;;;;;;;8.98;5.30;;;7.30;99.90;;;;;;5040591;28;20029;-72
2022/05/05 02:19:35;;;;;;;8.02;5.65;;;7.30;99.90;;;;;;5022739;28;20044;-72
2022/05/05 02:22:02;;;;;;;9.73;5.25;;;7.20;99.90;;;;;;5024335;28;20099;-71
2022/05/05 02:24:28;;;;;;;9.93;6.00;;;7.20;99.90;;;;;;5033597;28;20216;-71
2022/05/05 02:26:54;;;;;;;9.10;5.57;;;7.30;99.90;;;;;;5045195;28;20025;-72
2022/05/05 02:29:19;;;;;;;6.65;5.05;;;7.30;99.90;;;;;;5039149;28;20037;-71
2022/05/05 02:31:45;;;;;;;8.88;5.00;;;7.30;99.90;;;;;;5060160;28;20057;-71
2022/05/05 02:34:11;;;;;;;7.93;5.30;;;7.30;99.90;;;;;;5042168;28;20115;-71
2022/05/05 02:39:22;;;;;;;9.07;5.30;;;7.30;99.90;;;;;;5042098;28;20054;-71
2022/05/05 02:41:48;;;;;;;7.78;5.03;;;7.20;99.90;;;;;;5040441;28;20041;-71
2022/05/05 02:44:14;;;;;;;10.23;4.90;;;7.20;99.90;;;;;;5025597;28;20047;-71
2022/05/05 02:46:40;;;;;;;9.32;5.80;;;7.10;99.90;;;;;;5043723;28;20208;-71
2022/05/05 02:49:06;;;;;;;9.57;5.63;;;7.20;99.90;;;;;;5077105;28;20100;-71
2022/05/05 02:51:31;;;;;;;8.27;5.55;;;7.20;99.90;;;;;;5023057;28;20126;-71
2022/05/05 02:56:41;;;;;;;12.90;6.00;;;7.20;99.90;;;;;;5064247;28;20060;-71
2022/05/05 02:59:07;;;;;;;8.23;4.90;;;7.10;99.90;;;;;;5060468;28;20037;-71
2022/05/05 03:01:33;;;;;;;12.02;6.25;;;7.20;99.90;;;;;;5067888;28;20032;-71
2022/05/05 03:03:59;;;;;;;8.63;5.68;;;7.10;99.90;;;;;;5085842;28;20324;-71
2022/05/05 03:06:25;;;;;;;9.13;6.18;;;7.20;99.90;;;;;;5072165;28;20032;-71
2022/05/05 03:08:52;;;;;;;7.55;5.57;;;7.30;99.90;;;;;;5070511;28;21135;-71
2022/05/05 03:11:17;;;;;;;8.38;6.35;;;7.20;99.90;;;;;;5066068;28;20036;-70
2022/05/05 03:13:43;;;;;;;10.90;6.10;;;7.20;99.90;;;;;;5052295;28;20033;-70
2022/05/05 03:16:09;;;;;;;10.85;5.88;;;7.30;99.90;;;;;;5069685;28;20028;-70
2022/05/05 03:18:34;;;;;;;12.35;6.57;;;7.30;99.90;;;;;;5080512;28;20058;-71
2022/05/05 03:21:00;;;;;;;11.35;6.20;;;7.30;99.90;;;;;;5054526;28;20307;-71
2022/05/05 03:23:26;;;;;;;12.25;6.68;;;7.30;99.90;;;;;;5059330;28;20033;-71
2022/05/05 03:25:51;;;;;;;10.48;6.15;;;7.30;99.90;;;;;;5076870;28;20100;-70
2022/05/05 03:28:17;;;;;;;15.20;6.40;;;7.30;99.90;;;;;;5058441;28;20251;-71
2022/05/05 03:30:42;;;;;;;12.43;6.28;;;7.40;99.90;;;;;;5068738;28;20036;-71
2022/05/05 03:33:08;;;;;;;9.57;6.07;;;7.40;99.90;;;;;;5069058;28;20063;-70
2022/05/05 03:35:34;;;;;;;11.43;6.30;;;7.30;99.90;;;;;;5042728;28;20063;-71
2022/05/05 03:38:00;;;;;;;12.90;6.13;;;7.30;99.90;;;;;;5073585;28;20021;-71
2022/05/05 03:40:25;;;;;;;12.52;7.13;;;7.40;99.90;;;;;;5084609;28;20036;-70
2022/05/05 03:42:51;;;;;;;9.75;6.63;;;7.40;99.90;;;;;;5071057;28;20028;-70
2022/05/05 03:45:17;;;;;;;10.35;6.70;;;7.40;99.90;;;;;;5048640;28;20370;-71
2022/05/05 03:47:43;;;;;;;8.02;5.88;;;7.40;99.90;;;;;;5041956;28;20041;-71
2022/05/05 03:50:09;;;;;;;9.80;6.82;;;7.30;99.90;;;;;;5036792;28;20323;-70
2022/05/05 03:52:35;;;;;;;8.52;5.68;;;7.50;99.90;;;;;;5073778;28;20035;-70
2022/05/05 03:55:01;;;;;;;9.13;6.18;;;7.60;99.90;;;;;;5054628;28;20032;-72
2022/05/05 03:57:26;;;;;;;13.52;7.07;;;7.60;99.90;;;;;;5044708;28;20235;-71
2022/05/05 03:59:52;;;;;;;9.63;6.90;;;7.70;99.90;;;;;;5041043;28;20043;-71
2022/05/05 04:02:18;;;;;;;11.32;7.57;;;7.70;99.90;;;;;;5080306;28;20224;-71
2022/05/05 04:04:43;;;;;;;8.40;6.03;;;7.70;99.90;;;;;;5082822;28;20040;-72
2022/05/05 04:07:09;;;;;;;13.13;7.03;;;7.70;99.90;;;;;;5039059;28;20029;-72
2022/05/05 04:09:35;;;;;;;14.10;7.45;;;8.10;99.90;;;;;;5041197;28;20323;-72
2022/05/05 04:12:00;;;;;;;10.75;7.50;;;7.80;99.90;;;;;;5028367;28;20308;-71
2022/05/05 04:14:26;;;;;;;14.60;8.38;;;7.90;99.90;;;;;;5029683;28;20108;-71
2022/05/05 04:16:52;;;;;;;21.50;11.32;;;7.90;99.90;;;;;;5062518;28;20037;-71
2022/05/05 04:19:17;;;;;;;11.13;7.85;;;7.90;99.90;;;;;;5048193;28;20348;-71
2022/05/05 04:21:43;;;;;;;14.05;7.47;;;7.90;99.90;;;;;;5052918;28;20068;-71
2022/05/05 04:24:09;;;;;;;10.23;6.95;;;7.90;99.90;;;;;;5066343;28;20084;-71
2022/05/05 04:26:35;;;;;;;11.90;7.55;;;8.00;99.90;;;;;;5077748;28;20029;-71
2022/05/05 04:29:02;;;;;;;10.02;6.53;;;8.00;99.90;;;;;;5043049;28;20086;-71
2022/05/05 04:31:29;;;;;;;13.15;7.88;;;8.00;99.90;;;;;;5045485;28;20035;-72
2022/05/05 04:33:55;;;;;;;9.75;6.63;;;7.90;99.90;;;;;;5058839;28;20091;-70
2022/05/05 04:36:21;;;;;;;14.52;7.53;;;7.90;99.90;;;;;;5032097;28;20036;-70
2022/05/05 04:38:47;;;;;;;13.07;6.97;;;8.10;99.90;;;;;;5049365;28;20028;-71
2022/05/05 04:41:13;;;;;;;10.50;7.88;;;8.10;99.90;;;;;;5055628;28;20254;-70
2022/05/05 04:43:38;;;;;;;10.38;7.78;;;8.20;99.90;;;;;;5074483;28;20091;-72
2022/05/05 04:46:04;;;;;;;14.13;8.27;;;8.10;99.90;;;;;;5052736;28;20036;-70
2022/05/05 04:48:31;;;;;;;12.43;8.40;;;8.20;99.90;;;;;;5041291;28;20044;-70
2022/05/05 04:50:56;;;;;;;10.30;7.47;;;8.20;99.90;;;;;;5072573;28;20146;-70
2022/05/05 04:53:22;;;;;;;13.85;9.18;;;8.30;99.90;;;;;;5078138;28;20050;-69
2022/05/05 04:55:48;;;;;;;11.88;7.55;;;8.30;99.90;;;;;;5071073;28;20028;-69
2022/05/05 04:58:13;;;;;;;14.52;7.82;;;8.30;99.90;;;;;;5025407;28;20048;-70
2022/05/05 05:00:39;;;;;;;10.00;7.97;;;8.30;99.90;;;;;;5045661;28;20100;-70
2022/05/05 05:03:32;;;;;;;13.63;8.35;;;8.30;99.90;;;;;;5064595;28;20033;-70
2022/05/05 05:05:50;;;;;;;12.68;8.45;;;8.30;99.90;;;;;;5094038;28;20029;-71
2022/05/05 05:08:16;;;;;;;10.15;7.75;;;8.40;99.90;;;;;;5072534;28;20032;-71
2022/05/05 05:10:43;;;;;;;9.88;6.75;;;8.30;99.90;;;;;;5059999;28;20028;-70
2022/05/05 05:13:09;;;;;;;9.55;7.10;;;8.40;99.90;;;;;;5048740;28;20225;-71
2022/05/05 05:15:34;;;;;;;12.77;7.93;;;8.30;99.90;;;;;;5054158;28;20028;-71
2022/05/05 05:18:00;;;;;;;13.13;7.43;;;8.40;99.90;;;;;;5048618;28;20441;-72
2022/05/05 05:20:26;;;;;;;12.13;7.72;;;8.30;99.90;;;;;;5076600;28;20033;-71
2022/05/05 05:22:51;;;;;;;13.13;8.45;;;8.40;99.90;;;;;;5045767;28;20371;-70
2022/05/05 05:25:17;;;;;;;12.15;7.07;;;8.30;99.90;;;;;;5068839;28;20326;-71
2022/05/05 05:27:43;;;;;;;14.65;7.82;;;8.40;99.90;;;;;;5059858;28;20047;-72
2022/05/05 05:30:09;;;;;;;10.25;7.22;;;8.30;99.90;;;;;;5052914;28;20059;-71
2022/05/05 05:32:34;;;;;;;7.60;6.18;;;8.40;99.90;;;;;;5085553;28;20078;-71
2022/05/05 05:35:00;;;;;;;11.55;7.63;;;8.40;99.90;;;;;;5055047;28;20037;-71
2022/05/05 05:37:26;;;;;;;13.27;7.13;;;8.50;99.90;;;;;;5049962;28;20032;-72
2022/05/05 05:39:51;;;;;;;11.57;7.18;;;8.40;99.90;;;;;;5063648;28;20054;-72
2022/05/05 05:42:17;;;;;;;9.38;6.95;;;8.50;99.90;;;;;;5066396;28;20028;-71
2022/05/05 05:44:43;;;;;;;10.65;6.85;;;8.50;99.90;;;;;;5058609;28;20055;-72
2022/05/05 05:47:10;;;;;;;18.10;8.70;;;8.50;99.90;;;;;;5090936;28;20215;-71
2022/05/05 05:49:36;;;;;;;10.73;7.15;;;8.60;99.90;;;;;;5057599;28;20381;-71
2022/05/05 05:52:02;;;;;;;12.05;6.80;;;8.60;99.90;;;;;;5060941;28;20197;-71
2022/05/05 05:54:28;;;;;;;12.18;6.97;;;8.60;99.90;;;;;;5073378;28;20032;-71
2022/05/05 05:56:54;;;;;;;9.55;7.20;;;8.70;99.90;;;;;;5034968;28;20112;-71
2022/05/05 05:59:19;;;;;;;10.95;6.93;;;8.70;99.90;;;;;;5061265;28;20029;-72
2022/05/05 06:04:29;;;;;;;9.60;6.75;;;8.80;99.90;;;;;;5030955;28;20236;-71
2022/05/05 06:06:55;;;;;;;9.73;6.30;;;8.90;99.90;;;;;;5061467;28;20100;-72
2022/05/05 06:09:21;;;;;;;11.48;6.95;;;8.90;99.90;;;;;;5088357;28;20322;-71
2022/05/05 06:11:47;;;;;;;12.15;6.93;;;9.00;99.90;;;;;;5016708;28;20028;-71
2022/05/05 06:14:13;;;;;;;12.45;6.95;;;8.90;99.90;;;;;;5067399;28;20200;-72
2022/05/05 06:16:38;;;;;;;21.77;7.00;;;9.00;99.90;;;;;;5079489;28;20040;-72
2022/05/05 06:19:04;;;;;;;11.77;7.57;;;9.10;99.90;;;;;;5051249;28;20327;-73
2022/05/05 06:21:30;;;;;;;7.57;5.57;;;9.10;99.90;;;;;;5024030;28;20028;-72
2022/05/05 06:23:55;;;;;;;8.20;6.30;;;9.20;99.90;;;;;;5043844;28;20047;-72
2022/05/05 06:26:23;;;;;;;9.95;6.45;;;9.20;99.90;;;;;;5061365;28;20336;-71
2022/05/05 06:28:49;;;;;;;12.40;6.40;;;9.20;99.90;;;;;;5038050;28;20051;-71
2022/05/05 06:31:16;;;;;;;9.77;6.07;;;9.30;99.90;;;;;;5065031;28;20445;-71
2022/05/05 06:33:43;;;;;;;11.75;6.43;;;9.40;99.90;;;;;;5048256;28;20222;-72
2022/05/05 06:36:09;;;;;;;13.25;6.30;;;9.40;99.90;;;;;;5080740;28;20071;-71
2022/05/05 06:38:35;;;;;;;11.52;6.38;;;9.50;99.90;;;;;;5028087;28;20239;-71
2022/05/05 06:41:01;;;;;;;12.73;6.45;;;9.50;99.90;;;;;;5063040;28;20224;-72
2022/05/05 06:43:27;;;;;;;13.93;6.30;;;9.50;99.90;;;;;;5079553;28;20036;-71
2022/05/05 06:45:54;;;;;;;9.70;6.68;;;9.70;99.90;;;;;;5080979;28;20292;-71
2022/05/05 06:48:19;;;;;;;9.57;6.10;;;9.60;99.90;;;;;;5057761;28;20063;-71
2022/05/05 06:50:45;;;;;;;8.02;6.32;;;9.70;99.90;;;;;;5062747;28;20025;-71
2022/05/05 06:53:11;;;;;;;12.98;7.65;;;9.80;99.90;;;;;;5080116;28;20041;-71
2022/05/05 06:55:36;;;;;;;12.63;6.78;;;9.90;99.90;;;;;;5053817;28;20040;-69
2022/05/05 06:58:02;;;;;;;15.18;6.95;;;9.80;99.90;;;;;;5040822;28;20798;-69
2022/05/05 07:03:12;;;;;;;10.55;6.45;;;10.10;99.90;;;;;;5087232;28;20380;-73
2022/05/05 07:05:38;;;;;;;12.00;6.88;;;10.20;99.90;;;;;;5050673;28;20068;-73
2022/05/05 07:08:03;;;;;;;11.45;6.80;;;10.20;99.90;;;;;;5047922;28;20266;-73
2022/05/05 07:13:14;;;;;;;10.32;6.97;;;10.40;99.90;;;;;;5050465;28;20100;-72
2022/05/05 07:15:40;;;;;;;10.63;7.07;;;10.40;99.90;;;;;;5066884;28;20087;-72
2022/05/05 07:18:06;;;;;;;11.40;6.32;;;10.30;99.90;;;;;;5037811;28;20044;-71
2022/05/05 07:20:33;;;;;;;11.27;7.15;;;10.30;99.90;;;;;;5079064;28;20029;-72
2022/05/05 07:22:58;;;;;;;14.85;7.70;;;10.50;99.90;;;;;;5069456;28;20032;-71
2022/05/05 07:25:25;;;;;;;15.40;7.85;;;10.70;99.90;;;;;;5063901;28;20036;-72
2022/05/05 07:27:51;;;;;;;18.15;7.70;;;10.80;99.90;;;;;;5068069;28;20032;-72
2022/05/05 07:30:17;;;;;;;16.75;7.55;;;10.90;99.90;;;;;;5050874;28;20135;-71
2022/05/05 07:32:43;;;;;;;15.52;7.22;;;11.00;99.90;;;;;;5030854;28;20025;-71
2022/05/05 07:35:11;;;;;;;16.75;7.40;;;10.90;99.90;;;;;;5051732;28;20369;-70
2022/05/05 07:37:38;;;;;;;9.15;6.82;;;11.00;99.90;;;;;;5090415;28;20041;-71
2022/05/05 07:40:05;;;;;;;9.75;7.07;;;11.00;99.90;;;;;;5067327;28;20024;-73
2022/05/05 07:42:31;;;;;;;12.80;7.20;;;11.20;99.90;;;;;;5024287;28;20056;-73
2022/05/05 07:44:57;;;;;;;9.25;6.60;;;11.20;99.90;;;;;;5057122;28;20037;-71
2022/05/05 07:47:22;;;;;;;11.68;7.10;;;11.40;99.90;;;;;;5040544;28;20045;-71
2022/05/05 07:49:48;;;;;;;14.68;7.15;;;11.50;99.90;;;;;;5060464;28;20223;-72
2022/05/05 07:52:14;;;;;;;17.23;7.45;;;11.60;99.90;;;;;;5053196;28;20028;-72
2022/05/05 07:54:43;;;;;;;13.48;7.13;;;11.70;99.90;;;;;;5045134;28;20096;-71
2022/05/05 07:57:13;;;;;;;10.93;6.57;;;11.80;99.90;;;;;;5049346;28;20320;-70
2022/05/05 07:59:42;;;;;;;12.65;6.90;;;12.00;99.90;;;;;;5043173;28;20048;-71
2022/05/05 08:02:09;;;;;;;15.38;7.55;;;12.10;99.90;;;;;;5044442;28;20075;-72
2022/05/05 08:04:35;;;;;;;13.90;6.18;;;12.20;99.90;;;;;;5018593;28;20281;-72
2022/05/05 08:07:01;;;;;;;11.07;6.15;;;12.30;99.90;;;;;;5071622;28;20030;-72
2022/05/05 08:09:27;;;;;;;12.82;5.63;;;12.40;99.90;;;;;;5036160;28;20045;-73
2022/05/05 08:11:53;;;;;;;11.70;5.57;;;12.50;99.90;;;;;;5035439;28;20044;-71
2022/05/05 08:14:18;;;;;;;12.25;6.30;;;12.70;99.90;;;;;;5035404;28;20048;-71
2022/05/05 08:16:44;;;;;;;9.82;5.72;;;12.70;99.90;;;;;;5013532;28;20118;-71
2022/05/05 08:19:10;;;;;;;10.68;5.63;;;12.90;99.90;;;;;;5035233;28;20068;-71
2022/05/05 08:21:35;;;;;;;8.57;5.32;;;13.00;99.90;;;;;;5035958;28;20044;-70
2022/05/05 08:29:29;;;;;;;10.15;5.93;;;13.20;99.90;;;;;;5021196;28;20224;-71
2022/05/05 08:31:55;;;;;;;9.40;5.55;;;13.30;99.90;;;;;;5042908;28;20427;-71
2022/05/05 08:34:21;;;;;;;10.60;5.28;;;13.50;99.90;;;;;;5055028;28;20037;-72
2022/05/05 08:36:47;;;;;;;13.05;5.22;;;13.40;99.90;;;;;;5039438;28;20328;-71
2022/05/05 08:39:13;;;;;;;8.07;5.28;;;13.30;99.90;;;;;;5044821;28;20047;-72
2022/05/05 08:41:40;;;;;;;30.50;7.55;;;13.50;99.90;;;;;;5055939;28;20127;-72
2022/05/05 08:44:07;;;;;;;11.43;4.60;;;13.70;99.90;;;;;;5024463;28;20046;-71
2022/05/05 08:46:34;;;;;;;8.55;4.25;;;13.90;99.90;;;;;;5071962;28;20347;-71
2022/05/05 08:49:04;;;;;;;8.23;4.68;;;14.00;99.90;;;;;;5042807;28;20029;-71
2022/05/05 08:51:44;;;;;;;6.95;3.80;;;14.20;99.90;;;;;;5047742;28;20043;-72
2022/05/05 08:54:16;;;;;;;7.90;3.72;;;14.20;99.90;;;;;;5053498;28;20040;-71
2022/05/05 08:56:48;;;;;;;7.88;3.67;;;14.30;99.90;;;;;;5086878;28;20063;-73
2022/05/05 08:59:15;;;;;;;6.70;3.75;;;14.50;99.90;;;;;;5051391;28;20032;-72
2022/05/05 09:01:41;;;;;;;7.78;3.22;;;14.70;99.90;;;;;;5064459;28;20041;-72
2022/05/05 09:04:07;;;;;;;5.70;3.20;;;14.80;99.90;;;;;;5046548;28;20056;-71
2022/05/05 09:06:47;;;;;;;8.13;3.90;;;14.60;99.90;;;;;;5058304;28;20031;-72
2022/05/05 09:09:28;;;;;;;9.25;4.28;;;14.40;99.90;;;;;;5044685;28;20041;-71
2022/05/05 09:12:16;;;;;;;9.10;3.58;;;14.10;99.90;;;;;;5025406;28;20056;-72
2022/05/05 09:14:46;;;;;;;7.95;3.15;;;14.20;99.90;;;;;;5084832;28;20056;-72
2022/05/05 09:17:22;;;;;;;5.65;3.28;;;14.20;99.90;;;;;;5061603;28;20032;-71
2022/05/05 09:19:50;;;;;;;6.40;3.60;;;14.50;99.90;;;;;;5062779;28;20051;-74
2022/05/05 09:22:21;;;;;;;6.35;3.42;;;14.70;99.90;;;;;;5083447;28;20083;-72
2022/05/05 09:24:49;;;;;;;4.25;3.10;;;15.10;99.90;;;;;;5076944;28;20037;-71
2022/05/05 09:27:29;;;;;;;7.65;3.50;;;15.10;99.90;;;;;;5088326;28;20029;-71
2022/05/05 09:30:14;;;;;;;5.85;3.35;;;15.40;99.90;;;;;;5047350;28;20029;-70
2022/05/05 09:32:42;;;;;;;5.50;3.70;;;15.70;99.90;;;;;;5090966;28;20040;-72
2022/05/05 09:35:09;;;;;;;11.40;3.90;;;15.80;99.90;;;;;;5049946;28;20041;-71
2022/05/05 09:37:36;;;;;;;5.18;3.35;;;15.70;99.90;;;;;;5041079;28;20074;-71
2022/05/05 09:40:03;;;;;;;6.47;3.70;;;16.20;99.90;;;;;;5081029;28;20040;-71
2022/05/05 09:42:40;;;;;;;7.50;3.90;;;16.10;99.90;;;;;;5047774;28;20028;-71
2022/05/05 09:45:30;;;;;;;7.80;3.47;;;16.30;99.90;;;;;;5051984;28;20470;-70
2022/05/05 09:48:03;;;;;;;5.72;3.80;;;16.90;99.90;;;;;;5060990;28;20041;-71
2022/05/05 09:50:31;;;;;;;6.95;3.70;;;16.30;99.90;;;;;;5058937;28;20033;-70
2022/05/05 09:58:35;;;;;;;8.43;4.47;;;16.30;99.90;;;;;;5059874;28;20053;-70
2022/05/05 10:01:08;;;;;;;5.78;3.80;;;16.80;99.90;;;;;;5063509;28;20093;-71
2022/05/05 10:04:05;;;;;;;6.68;3.40;;;16.80;99.90;;;;;;5044192;28;20048;-72
2022/05/05 10:06:50;;;;;;;6.65;4.30;;;16.90;99.90;;;;;;5084948;28;20037;-70
2022/05/05 10:09:16;;;;;;;6.35;3.92;;;17.00;99.90;;;;;;5086120;28;20040;-71
2022/05/05 10:11:42;;;;;;;10.60;4.20;;;17.30;99.90;;;;;;5056544;28;20036;-71
2022/05/05 10:14:10;;;;;;;5.68;4.50;;;17.50;99.90;;;;;;5057723;28;20039;-70
2022/05/05 10:16:41;;;;;;;5.80;3.80;;;17.20;99.90;;;;;;5080759;28;20067;-71
2022/05/05 10:19:07;;;;;;;9.43;4.40;;;17.00;99.90;;;;;;5075375;28;20048;-70
2022/05/05 10:21:59;;;;;;;5.30;4.20;;;17.20;99.90;;;;;;5074219;28;20055;-72
2022/05/05 10:24:34;;;;;;;5.50;4.25;;;17.60;99.90;;;;;;5042956;28;20040;-72
2022/05/05 10:27:01;;;;;;;6.20;4.65;;;17.20;99.90;;;;;;5047707;28;20346;-72
2022/05/05 10:29:41;;;;;;;6.50;4.78;;;17.40;99.90;;;;;;5031759;28;20085;-71
2022/05/05 10:32:07;;;;;;;5.13;3.85;;;17.80;99.90;;;;;;5058951;28;20036;-70
2022/05/05 10:34:34;;;;;;;6.68;4.53;;;17.40;99.90;;;;;;5044997;28;20040;-70
2022/05/05 10:37:04;;;;;;;8.85;5.07;;;17.30;99.90;;;;;;5060801;28;20680;-72
2022/05/05 10:39:51;;;;;;;5.35;4.38;;;17.20;99.90;;;;;;5093392;28;20082;-70
2022/05/05 10:42:21;;;;;;;6.13;4.20;;;17.60;99.90;;;;;;5075417;28;20087;-71
2022/05/05 10:45:15;;;;;;;5.70;4.00;;;18.10;99.90;;;;;;5042782;28;20388;-71
2022/05/05 10:47:55;;;;;;;10.60;4.65;;;18.10;99.90;;;;;;5072839;28;20041;-72
2022/05/05 10:50:43;;;;;;;7.07;4.53;;;18.30;99.90;;;;;;5093190;28;20058;-71
2022/05/05 10:53:23;;;;;;;7.30;3.95;;;18.60;99.90;;;;;;5037324;28;20064;-73
2022/05/05 10:55:49;;;;;;;8.70;4.85;;;18.80;99.90;;;;;;5089465;28;20107;-72
2022/05/05 10:58:53;;;;;;;7.28;4.78;;;18.90;99.90;;;;;;5059447;28;20036;-72
2022/05/05 11:01:19;;;;;;;6.65;4.60;;;18.70;99.90;;;;;;5039359;28;20041;-72
2022/05/05 11:04:15;;;;;;;7.30;4.68;;;19.20;99.90;;;;;;5031440;28;20044;-72
2022/05/05 11:06:45;;;;;;;5.43;4.50;;;18.50;99.90;;;;;;5075359;28;20048;-71
2022/05/05 11:09:37;;;;;;;6.40;4.32;;;19.20;99.90;;;;;;5057630;28;20071;-71
2022/05/05 11:12:22;;;;;;;9.63;5.10;;;19.00;99.90;;;;;;5047891;28;21176;-72
2022/05/05 11:23:31;;;;;;;7.35;5.50;;;18.60;99.90;;;;;;5040502;28;20083;-73
2022/05/05 11:25:57;;;;;;;7.80;5.88;;;18.80;99.90;;;;;;5040141;28;20047;-71
2022/05/05 11:28:26;;;;;;;11.45;5.50;;;19.20;99.90;;;;;;5069198;28;20044;-73
2022/05/05 11:30:52;;;;;;;8.80;5.50;;;19.60;99.90;;;;;;5058940;28;20040;-71
2022/05/05 11:33:19;;;;;;;7.82;5.22;;;19.10;99.90;;;;;;5075146;28;21112;-72
2022/05/05 11:35:56;;;;;;;8.85;5.03;;;19.60;99.90;;;;;;5033697;28;20059;-71
2022/05/05 11:38:24;;;;;;;8.75;5.22;;;19.70;99.90;;;;;;5061036;28;20036;-71
2022/05/05 11:41:04;;;;;;;7.13;5.00;;;19.30;99.90;;;;;;5057059;28;20036;-71
2022/05/05 11:46:16;;;;;;;7.18;4.90;;;18.30;99.90;;;;;;5048093;28;20142;-72
2022/05/05 11:48:43;;;;;;;8.52;4.95;;;18.60;99.90;;;;;;5056734;28;20080;-71
2022/05/05 11:51:10;;;;;;;6.90;4.97;;;18.60;99.90;;;;;;5058474;28;20045;-70
2022/05/05 11:53:36;;;;;;;9.43;6.07;;;18.90;99.90;;;;;;5081521;28;20228;-70
2022/05/05 11:56:03;;;;;;;7.97;5.60;;;18.40;99.90;;;;;;5038968;28;20036;-73
2022/05/05 12:04:03;;;;;;;7.40;4.88;;;19.10;99.90;;;;;;5072540;28;20231;-73
2022/05/05 12:06:30;;;;;;;6.43;4.75;;;19.20;99.90;;;;;;5053147;28;20032;-72
2022/05/05 12:08:57;;;;;;;6.80;5.38;;;19.80;99.90;;;;;;5065326;28;20037;-72
2022/05/05 12:11:29;;;;;;;11.98;5.65;;;20.10;99.90;;;;;;5038761;28;20064;-72
2022/05/05 12:14:03;;;;;;;9.93;5.45;;;19.60;99.90;;;;;;5041308;28;20077;-69
2022/05/05 12:16:31;;;;;;;9.60;6.38;;;19.60;99.90;;;;;;5042598;28;20048;-69
2022/05/05 12:18:57;;;;;;;8.55;5.68;;;18.90;99.90;;;;;;5054337;28;20354;-71
2022/05/05 12:21:24;;;;;;;9.68;5.93;;;18.70;99.90;;;;;;5045997;28;20072;-71
2022/05/05 12:24:01;;;;;;;7.78;5.63;;;19.10;99.90;;;;;;5065982;28;20044;-71
2022/05/05 12:26:32;;;;;;;9.45;5.72;;;19.40;99.90;;;;;;5041387;28;20052;-71
2022/05/05 12:28:58;;;;;;;6.05;5.38;;;19.30;99.90;;;;;;5042678;28;20036;-71
2022/05/05 12:31:25;;;;;;;6.88;5.57;;;19.40;99.90;;;;;;5039021;28;20103;-71
2022/05/05 12:33:52;;;;;;;7.30;5.63;;;19.40;99.90;;;;;;5065615;28;20215;-71
2022/05/05 12:36:18;;;;;;;8.18;6.03;;;19.60;99.90;;;;;;5025938;28;20288;-71
2022/05/05 12:38:44;;;;;;;8.18;5.95;;;19.70;99.90;;;;;;5039149;28;20173;-71
2022/05/05 12:41:10;;;;;;;7.43;5.35;;;19.60;99.90;;;;;;5055242;28;20143;-71
2022/05/05 12:43:39;;;;;;;6.72;5.65;;;19.60;99.90;;;;;;5072794;28;20033;-71
2022/05/05 12:46:04;;;;;;;5.82;5.18;;;19.90;99.90;;;;;;5037802;28;20367;-71
2022/05/05 12:48:31;;;;;;;5.68;5.05;;;20.40;99.90;;;;;;5075906;28;20085;-72
2022/05/05 12:50:57;;;;;;;7.57;5.00;;;20.30;99.90;;;;;;5038660;28;20359;-70
2022/05/05 13:01:48;;;;;;;8.20;6.93;;;19.70;99.90;;;;;;5056733;28;20037;-71
2022/05/05 13:04:16;;;;;;;10.40;6.57;;;19.60;99.90;;;;;;5033491;28;20033;-70
2022/05/05 13:06:44;;;;;;;7.38;5.65;;;19.80;99.90;;;;;;5053414;28;20033;-71
2022/05/05 13:09:11;;;;;;;8.00;5.90;;;20.50;99.90;;;;;;5034817;28;20040;-72
2022/05/05 13:11:39;;;;;;;7.35;5.18;;;20.70;99.90;;;;;;5031232;28;20052;-71
2022/05/05 13:14:05;;;;;;;6.57;5.65;;;20.90;99.90;;;;;;5020826;28;20230;-71
2022/05/05 13:16:31;;;;;;;6.80;5.15;;;20.40;99.90;;;;;;5078488;28;20090;-71
2022/05/05 13:18:58;;;;;;;8.65;5.85;;;20.20;99.90;;;;;;5055073;28;20037;-71
2022/05/05 13:21:24;;;;;;;7.90;5.78;;;20.00;99.90;;;;;;5042786;28;20286;-71
2022/05/05 13:23:51;;;;;;;6.75;5.60;;;20.20;99.90;;;;;;5052406;28;20052;-71
2022/05/05 13:26:17;;;;;;;10.88;5.70;;;20.40;99.90;;;;;;5049375;28;20100;-72
2022/05/05 13:28:42;;;;;;;7.28;5.35;;;20.50;99.90;;;;;;5088077;28;20066;-71
2022/05/05 13:31:08;;;;;;;8.05;5.82;;;20.90;99.90;;;;;;5079222;28;20086;-71
2022/05/05 13:33:34;;;;;;;8.93;5.70;;;20.50;99.90;;;;;;5053831;28;20554;-71
2022/05/05 13:36:00;;;;;;;9.95;6.28;;;20.30;99.90;;;;;;5046683;28;20391;-71
2022/05/05 13:38:26;;;;;;;11.13;5.70;;;20.00;99.90;;;;;;5029181;28;20068;-71
2022/05/05 13:40:52;;;;;;;8.18;5.90;;;19.70;99.90;;;;;;5060402;28;20048;-71
2022/05/05 13:43:18;;;;;;;7.22;5.60;;;20.00;99.90;;;;;;5062420;28;20142;-71
2022/05/05 13:45:44;;;;;;;9.55;5.68;;;19.90;99.90;;;;;;5047465;28;20052;-70
2022/05/05 13:48:10;;;;;;;6.82;5.80;;;20.00;99.90;;;;;;5081274;28;20118;-72